createdAt,value
2019-06-01T00:01:32.211Z,68.85
2019-06-01T00:04:02.991Z,68.91
2019-06-01T00:06:33.688Z,68.81
2019-06-01T00:09:06.998Z,69.11
2019-06-01T00:11:39.112Z,69.41
2019-06-01T00:14:11.612Z,71.18
2019-06-01T00:16:42.344Z,71.68
2019-06-01T00:19:14.503Z,70.24
2019-06-01T00:21:45.491Z,69.40
2019-06-01T00:24:16.715Z,70.13
2019-06-01T00:26:47.891Z,70.31
2019-06-01T00:29:18.917Z,69.90
2019-06-01T00:31:49.943Z,69.60
2019-06-01T00:34:21.170Z,70.45
2019-06-01T00:36:52.086Z,71.87
2019-06-01T00:39:22.789Z,71.80
2019-06-01T00:41:53.507Z,70.81
2019-06-01T00:44:24.227Z,70.32
2019-06-01T00:46:55.284Z,70.25
2019-06-01T00:49:25.977Z,70.23
2019-06-01T00:51:56.718Z,70.19
2019-06-01T00:54:27.420Z,69.80
2019-06-01T00:56:58.578Z,70.25
2019-06-01T00:59:29.483Z,71.91
2019-06-01T01:02:00.461Z,72.21
2019-06-01T01:04:31.455Z,72.52
2019-06-01T01:07:03.365Z,72.95
2019-06-01T01:09:34.149Z,72.77
2019-06-01T01:12:05.009Z,71.59
2019-06-01T01:14:35.750Z,71.00
2019-06-01T01:17:06.665Z,70.69
2019-06-01T01:19:37.584Z,70.68
2019-06-01T01:22:08.318Z,70.91
2019-06-01T01:24:39.001Z,71.24
2019-06-01T01:27:10.400Z,71.35
2019-06-01T01:29:41.399Z,71.44
2019-06-01T01:32:12.071Z,71.65
2019-06-01T01:34:42.802Z,71.70
2019-06-01T01:37:13.583Z,71.20
2019-06-01T01:39:48.031Z,70.74
2019-06-01T01:42:19.110Z,70.95
2019-06-01T01:44:50.507Z,71.21
2019-06-01T01:47:21.459Z,71.15
2019-06-01T01:49:52.190Z,71.36
2019-06-01T01:52:22.922Z,71.92
2019-06-01T01:54:54.727Z,72.42
2019-06-01T01:57:25.566Z,71.98
2019-06-01T01:59:57.368Z,71.30
2019-06-01T02:02:28.410Z,74.15
2019-06-01T02:04:59.923Z,75.03
2019-06-01T02:07:30.902Z,76.47
2019-06-01T02:10:01.913Z,75.94
2019-06-01T02:12:33.055Z,76.44
2019-06-01T02:15:04.355Z,77.63
2019-06-01T02:17:35.096Z,76.05
2019-06-01T02:20:05.997Z,74.83
2019-06-01T02:22:37.106Z,73.37
2019-06-01T02:25:08.397Z,72.55
2019-06-01T02:27:39.360Z,71.91
2019-06-01T02:30:10.919Z,72.12
2019-06-01T02:32:41.726Z,71.79
2019-06-01T02:35:12.716Z,71.62
2019-06-01T02:37:43.390Z,71.24
2019-06-01T02:40:15.047Z,71.69
2019-06-01T02:42:46.220Z,74.16
2019-06-01T02:45:17.437Z,76.36
2019-06-01T02:47:48.132Z,75.63
2019-06-01T02:50:19.042Z,76.17
2019-06-01T02:52:50.179Z,77.30
2019-06-01T02:55:21.162Z,75.40
2019-06-01T02:57:51.822Z,74.56
2019-06-01T03:01:07.545Z,73.74
2019-06-01T03:03:38.927Z,72.78
2019-06-01T03:06:12.615Z,72.89
2019-06-01T03:08:47.382Z,74.04
2019-06-01T03:11:21.994Z,73.99
2019-06-01T03:13:58.258Z,73.18
2019-06-01T03:16:31.492Z,74.28
2019-06-01T03:19:03.791Z,75.28
2019-06-01T03:21:35.197Z,74.47
2019-06-01T03:24:08.918Z,74.37
2019-06-01T03:26:42.953Z,75.09
2019-06-01T03:29:16.371Z,73.63
2019-06-01T03:31:47.288Z,72.85
2019-06-01T03:34:18.059Z,72.55
2019-06-01T03:36:48.989Z,72.92
2019-06-01T03:39:19.956Z,73.19
2019-06-01T03:41:51.460Z,73.96
2019-06-01T03:44:22.182Z,74.01
2019-06-01T03:46:53.005Z,73.15
2019-06-01T03:49:24.138Z,72.87
2019-06-01T03:51:55.224Z,73.25
2019-06-01T03:54:25.920Z,73.68
2019-06-01T03:56:56.652Z,73.37
2019-06-01T03:59:27.448Z,72.42
2019-06-01T04:01:58.173Z,72.84
2019-06-01T04:04:30.180Z,72.23
2019-06-01T04:07:01.241Z,73.64
2019-06-01T04:09:32.029Z,74.41
2019-06-01T04:12:03.530Z,75.51
2019-06-01T04:14:34.301Z,75.83
2019-06-01T04:17:06.147Z,74.15
2019-06-01T04:19:37.025Z,72.58
2019-06-01T04:22:10.789Z,72.02
2019-06-01T04:24:42.551Z,71.09
2019-06-01T04:27:13.428Z,70.40
2019-06-01T04:29:44.144Z,69.16
2019-06-01T04:32:17.370Z,67.96
2019-06-01T04:34:48.082Z,66.88
2019-06-01T04:37:19.013Z,67.13
2019-06-01T04:39:49.711Z,65.36
2019-06-01T04:42:20.484Z,64.11
2019-06-01T04:44:51.166Z,63.23
2019-06-01T04:47:23.044Z,62.00
2019-06-01T04:49:54.219Z,59.87
2019-06-01T04:52:25.375Z,61.82
2019-06-01T04:54:56.420Z,62.72
2019-06-01T04:57:27.167Z,63.91
2019-06-01T04:59:57.862Z,62.72
2019-06-01T05:02:28.587Z,61.73
2019-06-01T05:04:59.282Z,60.81
2019-06-01T05:07:29.993Z,59.48
2019-06-01T05:10:00.687Z,59.78
2019-06-01T05:12:31.419Z,61.77
2019-06-01T05:15:02.330Z,60.81
2019-06-01T05:17:33.106Z,60.20
2019-06-01T05:20:03.945Z,62.59
2019-06-01T05:22:34.799Z,64.19
2019-06-01T05:25:06.802Z,63.15
2019-06-01T05:27:37.878Z,62.68
2019-06-01T05:30:11.453Z,62.10
2019-06-01T05:32:42.309Z,59.40
2019-06-01T05:35:13.801Z,54.65
2019-06-01T05:37:44.807Z,52.59
2019-06-01T05:40:16.750Z,52.59
2019-06-01T05:42:47.424Z,49.84
2019-06-01T05:45:19.490Z,47.14
2019-06-01T05:47:51.259Z,41.88
2019-06-01T05:50:22.704Z,39.41
2019-06-01T05:52:53.568Z,36.65
2019-06-01T05:55:24.493Z,38.28
2019-06-01T05:57:55.208Z,35.64
2019-06-01T06:00:42.259Z,36.28
2019-06-01T06:03:16.106Z,38.40
2019-06-01T06:05:46.634Z,40.24
2019-06-01T06:08:17.999Z,41.51
2019-06-01T06:10:49.049Z,42.85
2019-06-01T06:13:19.815Z,44.03
2019-06-01T06:15:50.868Z,44.77
2019-06-01T06:18:22.005Z,42.49
2019-06-01T06:20:52.911Z,41.76
2019-06-01T06:23:23.629Z,42.05
2019-06-01T06:25:54.337Z,41.62
2019-06-01T06:28:26.723Z,42.61
2019-06-01T06:30:59.747Z,44.03
2019-06-01T06:33:30.669Z,44.15
2019-06-01T06:36:01.379Z,43.87
2019-06-01T06:38:33.172Z,44.01
2019-06-01T06:41:03.879Z,44.05
2019-06-01T06:43:34.655Z,46.52
2019-06-01T06:46:05.500Z,49.91
2019-06-01T06:48:36.237Z,52.65
2019-06-01T06:51:07.039Z,55.08
2019-06-01T06:53:37.829Z,57.04
2019-06-01T06:56:08.669Z,59.52
2019-06-01T06:58:39.474Z,59.52
2019-06-01T07:01:12.138Z,60.14
2019-06-01T07:03:42.671Z,61.43
2019-06-01T07:06:13.402Z,61.93
2019-06-01T07:08:44.251Z,62.81
2019-06-01T07:11:15.133Z,61.43
2019-06-01T07:13:45.892Z,61.52
2019-06-01T07:16:16.781Z,61.82
2019-06-01T07:18:47.506Z,61.82
2019-06-01T07:21:19.472Z,62.86
2019-06-01T07:23:50.296Z,60.32
2019-06-01T07:26:21.915Z,60.87
2019-06-01T07:28:52.676Z,59.63
2019-06-01T07:31:24.270Z,58.28
2019-06-01T07:33:55.142Z,56.29
2019-06-01T07:36:26.693Z,57.07
2019-06-01T07:38:58.772Z,55.20
2019-06-01T07:41:29.616Z,56.94
2019-06-01T07:44:00.604Z,54.21
2019-06-01T07:46:31.302Z,57.47
2019-06-01T07:49:02.086Z,53.82
2019-06-01T07:51:34.435Z,55.55
2019-06-01T07:54:05.235Z,52.38
2019-06-01T07:56:35.960Z,54.06
2019-06-01T07:59:07.716Z,54.15
2019-06-01T08:01:38.758Z,54.08
2019-06-01T08:04:09.503Z,54.39
2019-06-01T08:06:45.960Z,55.19
2019-06-01T08:09:13.739Z,50.75
2019-06-01T08:11:44.460Z,51.10
2019-06-01T08:14:15.482Z,50.43
2019-06-01T08:16:46.297Z,53.39
2019-06-01T08:19:17.062Z,54.19
2019-06-01T08:21:48.109Z,53.03
2019-06-01T08:24:18.889Z,52.30
2019-06-01T08:26:50.745Z,52.24
2019-06-01T08:29:22.623Z,51.36
2019-06-01T08:31:55.754Z,47.69
2019-06-01T08:34:26.913Z,50.78
2019-06-01T08:36:57.660Z,47.61
2019-06-01T08:39:29.443Z,48.09
2019-06-01T08:42:00.451Z,47.60
2019-06-01T08:44:31.704Z,47.64
2019-06-01T08:47:02.809Z,46.11
2019-06-01T08:49:34.525Z,47.18
2019-06-01T08:52:05.553Z,45.93
2019-06-01T08:54:36.281Z,47.57
2019-06-01T08:57:07.020Z,46.28
2019-06-01T08:59:37.744Z,46.57
2019-06-01T09:02:08.990Z,43.69
2019-06-01T09:04:40.001Z,46.31
2019-06-01T09:07:10.680Z,45.28
2019-06-01T09:09:41.430Z,43.03
2019-06-01T09:12:12.471Z,43.87
2019-06-01T09:14:43.180Z,42.65
2019-06-01T09:17:18.299Z,43.52
2019-06-01T09:19:46.310Z,41.01
2019-06-01T09:22:17.215Z,43.21
2019-06-01T09:24:47.935Z,43.23
2019-06-01T09:27:18.673Z,42.02
2019-06-01T09:29:49.488Z,41.65
2019-06-01T09:32:20.307Z,44.46
2019-06-01T09:34:51.069Z,41.24
2019-06-01T09:37:21.759Z,40.37
2019-06-01T09:39:52.650Z,39.55
2019-06-01T09:42:23.489Z,38.66
2019-06-01T09:44:54.281Z,39.37
2019-06-01T09:47:24.988Z,40.23
2019-06-01T09:49:55.725Z,38.12
2019-06-01T09:52:27.411Z,38.81
2019-06-01T09:54:58.769Z,38.58
2019-06-01T09:57:29.828Z,38.57
2019-06-01T10:00:00.993Z,37.36
2019-06-01T10:02:32.250Z,39.35
2019-06-01T10:05:03.239Z,41.57
2019-06-01T10:07:34.849Z,38.25
2019-06-01T10:10:06.465Z,37.62
2019-06-01T10:12:38.214Z,39.87
2019-06-01T10:15:09.298Z,38.64
2019-06-01T10:17:40.300Z,38.76
2019-06-01T10:20:11.558Z,37.84
2019-06-01T10:22:42.451Z,35.81
2019-06-01T10:25:13.166Z,42.17
2019-06-01T10:27:43.935Z,38.42
2019-06-01T10:30:15.180Z,37.13
2019-06-01T10:32:46.136Z,36.99
2019-06-01T10:35:17.161Z,35.95
2019-06-01T10:37:48.007Z,36.54
2019-06-01T10:40:18.716Z,37.73
2019-06-01T10:42:49.689Z,36.61
2019-06-01T10:45:20.512Z,37.86
2019-06-01T10:47:51.440Z,40.20
2019-06-01T10:50:22.492Z,38.69
2019-06-01T10:52:53.428Z,37.83
2019-06-01T10:55:24.140Z,35.90
2019-06-01T10:57:54.951Z,35.99
2019-06-01T11:00:37.577Z,35.67
2019-06-01T11:02:58.260Z,34.47
2019-06-01T11:05:29.157Z,35.09
2019-06-01T11:07:59.931Z,37.31
2019-06-01T11:10:30.736Z,36.17
2019-06-01T11:13:01.530Z,36.49
2019-06-01T11:15:32.921Z,36.13
2019-06-01T11:18:03.851Z,36.88
2019-06-01T11:20:35.212Z,36.97
2019-06-01T11:23:06.012Z,37.28
2019-06-01T11:25:37.569Z,37.32
2019-06-01T11:28:08.371Z,38.78
2019-06-01T11:30:39.955Z,36.91
2019-06-01T11:33:10.866Z,37.02
2019-06-01T11:35:41.618Z,36.14
2019-06-01T11:38:12.506Z,35.55
2019-06-01T11:40:43.233Z,35.55
2019-06-01T11:43:14.110Z,36.61
2019-06-01T11:45:46.243Z,35.57
2019-06-01T11:48:17.223Z,34.67
2019-06-01T11:50:47.973Z,36.25
2019-06-01T11:53:18.760Z,35.06
2019-06-01T11:55:49.723Z,34.93
2019-06-01T11:58:20.496Z,35.86
2019-06-01T12:00:51.249Z,36.41
2019-06-01T12:03:21.942Z,35.88
2019-06-01T12:05:52.697Z,37.04
2019-06-01T12:08:23.449Z,35.54
2019-06-01T12:10:54.219Z,35.16
2019-06-01T12:13:24.968Z,35.15
2019-06-01T12:15:55.762Z,35.77
2019-06-01T12:18:26.590Z,36.28
2019-06-01T12:20:57.474Z,33.54
2019-06-01T12:23:28.170Z,35.30
2019-06-01T12:25:59.095Z,34.31
2019-06-01T12:28:29.821Z,34.38
2019-06-01T12:31:00.637Z,35.11
2019-06-01T12:33:31.465Z,35.78
2019-06-01T12:36:02.203Z,35.50
2019-06-01T12:38:49.454Z,36.09
2019-06-01T12:41:22.834Z,35.13
2019-06-01T12:44:11.304Z,34.92
2019-06-01T12:46:43.704Z,35.15
2019-06-01T12:49:14.730Z,36.31
2019-06-01T12:51:46.898Z,34.46
2019-06-01T12:54:17.923Z,34.30
2019-06-01T12:56:49.777Z,34.99
2019-06-01T12:59:20.576Z,34.29
2019-06-01T13:01:51.662Z,32.92
2019-06-01T13:04:22.728Z,38.16
2019-06-01T13:06:54.162Z,32.31
2019-06-01T13:09:24.982Z,33.39
2019-06-01T13:11:55.917Z,31.72
2019-06-01T13:14:26.638Z,31.58
2019-06-01T13:17:06.655Z,33.34
2019-06-01T13:19:30.168Z,40.48
2019-06-01T13:22:00.914Z,32.72
2019-06-01T13:24:31.630Z,32.99
2019-06-01T13:27:02.469Z,33.84
2019-06-01T13:29:33.335Z,33.28
2019-06-01T13:32:04.247Z,37.60
2019-06-01T13:34:35.015Z,32.83
2019-06-01T13:37:06.237Z,31.51
2019-06-01T13:39:37.185Z,30.27
2019-06-01T13:42:08.139Z,29.52
2019-06-01T13:44:38.854Z,30.90
2019-06-01T13:47:09.729Z,33.00
2019-06-01T13:49:40.585Z,32.62
2019-06-01T13:52:11.338Z,31.80
2019-06-01T13:54:42.228Z,30.67
2019-06-01T13:57:13.001Z,31.22
2019-06-01T13:59:44.568Z,31.46
2019-06-01T14:02:15.708Z,30.34
2019-06-01T14:04:47.563Z,30.40
2019-06-01T14:07:18.407Z,30.21
2019-06-01T14:09:51.984Z,30.21
2019-06-01T14:12:22.442Z,33.05
2019-06-01T14:14:53.645Z,31.25
2019-06-01T14:17:24.845Z,31.10
2019-06-01T14:19:55.978Z,30.34
2019-06-01T14:22:27.083Z,29.88
2019-06-01T14:25:11.493Z,31.22
2019-06-01T14:27:30.623Z,30.38
2019-06-01T14:30:01.520Z,29.51
2019-06-01T14:32:32.235Z,30.27
2019-06-01T14:35:03.012Z,30.75
2019-06-01T14:37:33.827Z,33.71
2019-06-01T14:40:05.394Z,32.84
2019-06-01T14:42:36.439Z,31.92
2019-06-01T14:45:07.671Z,29.45
2019-06-01T14:47:38.561Z,30.60
2019-06-01T14:50:09.910Z,28.89
2019-06-01T14:52:40.631Z,29.48
2019-06-01T14:55:11.643Z,28.85
2019-06-01T14:57:42.751Z,30.13
2019-06-01T15:00:15.527Z,30.85
2019-06-01T15:02:46.404Z,30.02
2019-06-01T15:05:17.124Z,29.61
2019-06-01T15:07:48.189Z,30.52
2019-06-01T15:10:19.212Z,31.53
2019-06-01T15:12:54.598Z,30.08
2019-06-01T15:15:22.929Z,29.51
2019-06-01T15:17:53.892Z,30.71
2019-06-01T15:20:24.718Z,31.34
2019-06-01T15:22:56.337Z,31.23
2019-06-01T15:25:27.427Z,30.45
2019-06-01T15:27:59.573Z,29.81
2019-06-01T15:30:30.704Z,31.08
2019-06-01T15:33:03.228Z,29.68
2019-06-01T15:35:34.256Z,30.57
2019-06-01T15:38:05.235Z,30.51
2019-06-01T15:40:35.984Z,30.57
2019-06-01T15:43:06.760Z,30.89
2019-06-01T15:45:41.105Z,32.15
2019-06-01T15:48:10.217Z,30.56
2019-06-01T15:50:41.020Z,30.46
2019-06-01T15:53:11.721Z,31.38
2019-06-01T15:55:42.468Z,31.13
2019-06-01T15:58:14.702Z,32.41
2019-06-01T16:00:45.652Z,29.72
2019-06-01T16:03:16.378Z,29.81
2019-06-01T16:05:47.146Z,30.27
2019-06-01T16:08:18.261Z,32.87
2019-06-01T16:10:49.030Z,29.82
2019-06-01T16:13:19.740Z,30.01
2019-06-01T16:15:50.457Z,30.45
2019-06-01T16:18:21.190Z,30.57
2019-06-01T16:20:52.236Z,29.92
2019-06-01T16:23:23.264Z,28.93
2019-06-01T16:26:07.264Z,29.78
2019-06-01T16:28:26.645Z,27.88
2019-06-01T16:30:58.538Z,26.93
2019-06-01T16:33:29.316Z,24.65
2019-06-01T16:36:01.009Z,25.43
2019-06-01T16:38:31.877Z,27.07
2019-06-01T16:41:03.408Z,26.42
2019-06-01T16:43:34.208Z,26.77
2019-06-01T16:46:05.961Z,26.51
2019-06-01T16:48:37.011Z,25.96
2019-06-01T16:51:07.763Z,23.83
2019-06-01T16:53:38.507Z,21.73
2019-06-01T16:56:09.583Z,20.80
2019-06-01T16:58:40.368Z,20.48
2019-06-01T17:01:11.116Z,18.65
2019-06-01T17:03:42.097Z,18.79
2019-06-01T17:06:12.884Z,17.87
2019-06-01T17:08:43.596Z,19.31
2019-06-01T17:11:14.600Z,17.99
2019-06-01T17:13:45.324Z,17.41
2019-06-01T17:16:16.085Z,17.50
2019-06-01T17:18:48.012Z,19.93
2019-06-01T17:21:18.800Z,20.80
2019-06-01T17:23:49.543Z,24.45
2019-06-01T17:26:20.329Z,26.87
2019-06-01T17:28:51.150Z,28.86
2019-06-01T17:31:21.905Z,27.44
2019-06-01T17:33:52.835Z,27.83
2019-06-01T17:36:23.740Z,28.10
2019-06-01T17:38:54.648Z,29.34
2019-06-01T17:41:25.678Z,31.89
2019-06-01T17:43:56.414Z,32.54
2019-06-01T17:46:27.187Z,31.06
2019-06-01T17:49:00.019Z,31.83
2019-06-01T17:51:31.967Z,30.66
2019-06-01T17:54:05.010Z,31.07
2019-06-01T17:56:35.242Z,31.49
2019-06-01T17:59:07.449Z,33.67
2019-06-01T18:01:42.128Z,34.20
2019-06-01T18:04:12.110Z,34.20
2019-06-01T18:06:43.152Z,36.70
2019-06-01T18:09:13.938Z,37.71
2019-06-01T18:11:44.867Z,38.55
2019-06-01T18:14:16.085Z,39.02
2019-06-01T18:16:47.039Z,39.47
2019-06-01T18:19:17.763Z,39.89
2019-06-01T18:21:48.565Z,39.21
2019-06-01T18:24:19.338Z,39.42
2019-06-01T18:26:50.072Z,39.63
2019-06-01T18:29:20.934Z,40.18
2019-06-01T18:31:51.683Z,40.35
2019-06-01T18:34:22.423Z,40.23
2019-06-01T18:36:53.633Z,40.72
2019-06-01T18:39:24.698Z,40.91
2019-06-01T18:41:55.718Z,41.08
2019-06-01T18:44:26.584Z,41.01
2019-06-01T18:46:57.663Z,41.39
2019-06-01T18:49:28.623Z,41.89
2019-06-01T18:51:59.644Z,42.46
2019-06-01T18:54:30.369Z,43.24
2019-06-01T18:57:12.007Z,43.21
2019-06-01T19:02:31.076Z,43.89
2019-06-01T19:05:07.013Z,44.16
2019-06-01T19:07:37.878Z,44.36
2019-06-01T19:10:12.532Z,44.90
2019-06-01T19:12:42.998Z,45.35
2019-06-01T19:15:27.810Z,45.09
2019-06-01T19:17:47.725Z,45.22
2019-06-01T19:20:18.888Z,45.84
2019-06-01T19:23:02.177Z,45.58
2019-06-01T19:25:32.927Z,45.74
2019-06-01T19:28:03.772Z,45.94
2019-06-01T19:30:37.089Z,45.37
2019-06-01T19:33:11.103Z,45.38
2019-06-01T19:35:41.947Z,45.72
2019-06-01T19:38:13.398Z,46.14
2019-06-01T19:40:44.503Z,45.90
2019-06-01T19:43:15.805Z,45.97
2019-06-01T19:45:46.774Z,45.67
2019-06-01T19:48:18.876Z,45.75
2019-06-01T19:50:50.366Z,46.38
2019-06-01T19:53:21.438Z,47.46
2019-06-01T19:55:52.177Z,48.58
2019-06-01T19:58:22.930Z,47.56
2019-06-01T20:00:53.964Z,48.35
2019-06-01T20:03:25.014Z,48.16
2019-06-01T20:05:55.762Z,49.19
2019-06-01T20:08:26.597Z,49.96
2019-06-01T20:10:57.540Z,50.00
2019-06-01T20:13:28.681Z,50.92
2019-06-01T20:15:59.747Z,51.20
2019-06-01T20:18:30.505Z,51.60
2019-06-01T20:21:01.465Z,51.60
2019-06-01T20:23:32.581Z,52.10
2019-06-01T20:26:03.850Z,52.41
2019-06-01T20:28:34.747Z,52.41
2019-06-01T20:31:05.982Z,52.99
2019-06-01T20:33:37.270Z,53.16
2019-06-01T20:36:08.166Z,53.16
2019-06-01T20:38:38.990Z,54.93
2019-06-01T20:41:09.742Z,54.37
2019-06-01T20:43:41.037Z,55.21
2019-06-01T20:46:12.842Z,56.76
2019-06-01T20:48:44.110Z,59.22
2019-06-01T20:51:14.873Z,59.22
2019-06-01T20:53:45.914Z,58.69
2019-06-01T20:56:17.362Z,58.50
2019-06-01T20:58:48.234Z,58.50
2019-06-01T21:01:20.069Z,58.59
2019-06-01T21:03:51.207Z,59.28
2019-06-01T21:06:22.492Z,60.16
2019-06-01T21:08:53.428Z,60.16
2019-06-01T21:11:24.503Z,59.17
2019-06-01T21:13:55.214Z,59.97
2019-06-01T21:16:26.241Z,59.97
2019-06-01T21:18:57.304Z,60.22
2019-06-01T21:21:27.976Z,59.81
2019-06-01T21:23:58.781Z,59.99
2019-06-01T21:26:29.559Z,60.41
2019-06-01T21:29:00.345Z,60.72
2019-06-01T21:31:31.159Z,60.72
2019-06-01T21:34:02.137Z,61.75
2019-06-01T21:36:32.849Z,61.75
2019-06-01T21:39:05.160Z,60.59
2019-06-01T21:41:37.058Z,61.58
2019-06-01T21:44:07.861Z,61.01
2019-06-01T21:46:38.602Z,61.18
2019-06-01T21:49:09.359Z,61.18
2019-06-01T21:51:40.083Z,62.38
2019-06-01T21:54:10.834Z,61.75
2019-06-01T21:56:41.767Z,61.75
2019-06-01T22:02:37.838Z,61.97
2019-06-01T22:05:09.089Z,62.92
2019-06-01T22:07:39.787Z,62.20
2019-06-01T22:10:10.596Z,61.72
2019-06-01T22:12:41.468Z,59.94
2019-06-01T22:15:12.186Z,59.52
2019-06-01T22:17:43.054Z,59.52
2019-06-01T22:20:13.835Z,60.50
2019-06-01T22:22:44.681Z,60.50
2019-06-01T22:25:15.370Z,61.78
2019-06-01T22:27:46.159Z,61.73
2019-06-01T22:30:18.367Z,62.54
2019-06-01T22:32:49.182Z,63.21
2019-06-01T22:35:20.848Z,64.35
2019-06-01T22:37:51.644Z,63.33
2019-06-01T22:40:22.821Z,62.36
2019-06-01T22:42:53.704Z,62.24
2019-06-01T22:45:24.725Z,62.05
2019-06-01T22:47:55.479Z,62.13
2019-06-01T22:50:27.055Z,62.22
2019-06-01T22:52:57.898Z,62.57
2019-06-01T22:55:28.648Z,62.48
2019-06-01T22:57:59.607Z,62.31
2019-06-01T23:00:30.368Z,63.21
2019-06-01T23:03:01.094Z,65.51
2019-06-01T23:05:32.253Z,65.51
2019-06-01T23:08:03.026Z,64.15
2019-06-01T23:10:35.285Z,64.15
2019-06-01T23:13:06.361Z,64.66
2019-06-01T23:15:37.255Z,65.42
2019-06-01T23:18:08.132Z,66.08
2019-06-01T23:20:39.001Z,66.77
2019-06-01T23:23:09.739Z,67.33
2019-06-01T23:25:40.602Z,67.39
2019-06-01T23:28:11.370Z,68.10
2019-06-01T23:30:42.116Z,67.85
2019-06-01T23:33:12.859Z,67.23
2019-06-01T23:35:43.554Z,65.59
2019-06-01T23:38:14.591Z,64.71
2019-06-01T23:40:45.954Z,64.67
2019-06-01T23:43:17.133Z,66.25
2019-06-01T23:45:48.255Z,65.62
2019-06-01T23:48:19.299Z,65.66
2019-06-01T23:50:50.172Z,64.76
2019-06-01T23:53:20.857Z,65.81
2019-06-01T23:55:51.685Z,66.81
2019-06-01T23:58:22.387Z,67.28
